Time;durP1;ratioP1;P1;durP2;ratioP2;P2;SDS_P1;SDS_P2;PMS_P1;PMS_P2;Temp;Humidity;BMP_temperature;BMP_pressure;BME280_temperature;BME280_humidity;BME280_pressure;Samples;Min_cycle;Max_cycle;Signal;HPM_P1;HPM_P2
2022/05/08 00:01:18;;;;;;;9.80;3.60;;;;;;;11.52;79.72;101856.81;5979230;28;20043;-67
2022/05/08 00:04:14;;;;;;;14.93;4.57;;;;;;;11.41;79.59;101862.13;5987301;28;20050;-68
2022/05/08 00:07:09;;;;;;;14.57;4.97;;;;;;;11.35;79.74;101852.00;5983842;28;20506;-65
2022/05/08 00:10:05;;;;;;;12.20;4.23;;;;;;;11.45;79.48;101868.88;5980235;28;20031;-68
2022/05/08 00:13:00;;;;;;;12.23;3.80;;;;;;;11.37;79.94;101860.69;5990542;28;20129;-67
2022/05/08 00:15:55;;;;;;;12.93;4.17;;;;;;;11.48;79.41;101857.16;5980667;28;20538;-68
2022/05/08 00:18:51;;;;;;;9.80;3.87;;;;;;;11.57;79.79;101856.41;5980821;28;20040;-68
2022/05/08 00:21:46;;;;;;;11.93;4.27;;;;;;;11.67;79.13;101858.19;5980615;28;20035;-66
2022/05/08 00:24:41;;;;;;;9.77;3.47;;;;;;;11.46;79.51;101856.44;5993023;28;20283;-67
2022/05/08 00:27:36;;;;;;;7.77;4.17;;;;;;;11.25;80.35;101859.00;5990187;28;20047;-67
2022/05/08 00:30:32;;;;;;;13.40;3.63;;;;;;;11.25;80.21;101859.00;5979599;28;20429;-65
2022/05/08 00:33:27;;;;;;;12.03;3.97;;;;;;;11.22;80.21;101864.56;5988406;28;20275;-67
2022/05/08 00:36:23;;;;;;;12.07;4.20;;;;;;;11.03;80.85;101861.69;5982022;28;20105;-67
2022/05/08 00:39:19;;;;;;;13.15;3.97;;;;;;;11.01;80.32;101855.63;5984496;28;20423;-68
2022/05/08 00:42:14;;;;;;;13.55;3.75;;;;;;;10.70;80.65;101862.50;5980282;28;20031;-68
2022/05/08 00:45:09;;;;;;;13.17;4.00;;;;;;;10.61;80.68;101856.09;5989718;28;20042;-66
2022/05/08 00:48:05;;;;;;;12.98;4.20;;;;;;;10.58;81.17;101866.94;5980973;28;20031;-67
2022/05/08 00:51:02;;;;;;;12.05;3.75;;;;;;;10.42;81.03;101858.47;5990387;28;20364;-67
2022/05/08 00:54:00;;;;;;;10.00;3.40;;;;;;;10.31;80.36;101861.06;5985985;28;20034;-67
2022/05/08 00:56:57;;;;;;;15.15;4.10;;;;;;;10.25;80.08;101858.88;5979786;28;20034;-66
2022/05/08 00:59:53;;;;;;;15.70;4.10;;;;;;;10.30;79.84;101867.31;5979845;28;20111;-67
2022/05/08 01:02:48;;;;;;;10.93;4.30;;;;;;;10.30;79.75;101866.50;5989500;28;20483;-67
2022/05/08 01:05:44;;;;;;;12.48;3.50;;;;;;;10.26;80.25;101873.00;5979563;28;20085;-66
2022/05/08 01:08:44;;;;;;;12.27;4.28;;;;;;;10.13;80.87;101870.44;5989238;28;20043;-67
2022/05/08 01:11:39;;;;;;;16.13;3.28;;;;;;;10.27;79.53;101872.03;5979436;28;20126;-68
2022/05/08 01:14:35;;;;;;;16.70;4.03;;;;;;;10.07;78.91;101881.44;5979554;28;20493;-67
2022/05/08 01:17:30;;;;;;;15.70;4.03;;;;;;;9.81;78.27;101887.81;5981450;28;20298;-68
2022/05/08 01:20:25;;;;;;;7.63;2.97;;;;;;;9.74;77.46;101883.91;5978739;28;20035;-66
2022/05/08 01:23:23;;;;;;;11.50;3.03;;;;;;;9.82;77.87;101892.16;5981653;28;20043;-66
2022/05/08 01:26:22;;;;;;;11.25;3.88;;;;;;;9.79;76.87;101903.81;5980141;28;20057;-65
2022/05/08 01:29:18;;;;;;;10.52;3.38;;;;;;;9.75;77.77;101904.16;5983220;28;20127;-66
2022/05/08 01:32:13;;;;;;;9.93;3.20;;;;;;;9.57;78.36;101901.88;5978586;28;20035;-67
2022/05/08 01:35:08;;;;;;;13.83;3.70;;;;;;;9.61;79.24;101896.38;5979243;28;20399;-66
2022/05/08 01:38:05;;;;;;;10.03;3.87;;;;;;;9.40;79.05;101910.16;5979404;28;20059;-67
2022/05/08 01:41:04;;;;;;;12.75;2.97;;;;;;;9.30;79.45;101909.13;5978397;28;20126;-66
2022/05/08 01:43:59;;;;;;;12.73;3.63;;;;;;;9.14;79.37;101905.03;5980858;28;20474;-65
2022/05/08 01:48:21;;;;;;;17.03;3.13;;;;;;;9.29;79.44;101915.41;5982145;28;20089;-67
2022/05/08 01:50:10;;;;;;;12.70;3.00;;;;;;;9.09;78.84;101913.31;5978533;28;20039;-68
2022/05/08 01:53:05;;;;;;;10.13;3.00;;;;;;;8.95;78.81;101910.75;5987736;28;20651;-67
2022/05/08 01:56:05;;;;;;;15.77;2.80;;;;;;;8.91;78.91;101919.88;5982003;28;20291;-66
2022/05/08 01:59:00;;;;;;;12.82;3.00;;;;;;;8.83;78.26;101924.84;5978890;28;20043;-67
2022/05/08 02:01:56;;;;;;;13.17;3.10;;;;;;;8.86;76.85;101914.88;5982255;28;20493;-68
2022/05/08 02:04:51;;;;;;;13.35;3.00;;;;;;;8.81;76.73;101934.66;5985010;28;20039;-67
2022/05/08 02:07:47;;;;;;;11.97;3.27;;;;;;;8.56;76.55;101926.72;5979774;28;20031;-67
2022/05/08 02:10:42;;;;;;;13.77;2.70;;;;;;;8.49;76.35;101923.63;5978575;28;20038;-67
2022/05/08 02:13:37;;;;;;;10.93;2.72;;;;;;;8.29;76.36;101926.75;5979044;28;20031;-67
2022/05/08 02:16:33;;;;;;;14.37;3.00;;;;;;;8.46;76.53;101923.81;5982976;28;20035;-66
2022/05/08 02:19:28;;;;;;;15.77;2.70;;;;;;;8.52;75.26;101938.44;5989466;28;20090;-67
2022/05/08 02:22:23;;;;;;;10.60;2.87;;;;;;;8.52;75.13;101938.44;5985285;28;20049;-66
2022/05/08 02:25:19;;;;;;;11.80;2.70;;;;;;;8.41;75.51;101940.94;5983013;28;20035;-66
2022/05/08 02:28:14;;;;;;;13.88;2.63;;;;;;;8.42;75.26;101945.28;5990303;28;20490;-66
2022/05/08 02:31:10;;;;;;;13.97;2.80;;;;;;;8.48;75.58;101948.34;5995468;28;20043;-67
2022/05/08 02:34:05;;;;;;;10.90;2.70;;;;;;;8.51;74.58;101936.72;5982845;28;20031;-67
2022/05/08 02:37:00;;;;;;;12.80;2.57;;;;;;;8.44;76.03;101931.03;5983506;28;20042;-67
2022/05/08 02:39:56;;;;;;;11.17;2.30;;;;;;;8.44;76.39;101951.31;5983260;28;20031;-67
2022/05/08 02:42:51;;;;;;;10.65;3.20;;;;;;;8.56;75.54;101948.69;5983930;28;20063;-67
2022/05/08 02:45:47;;;;;;;11.40;2.33;;;;;;;8.51;74.39;101942.00;5983700;28;20039;-66
2022/05/08 02:48:42;;;;;;;12.90;2.78;;;;;;;8.48;76.18;101942.25;5983662;28;20046;-67
2022/05/08 02:51:38;;;;;;;12.60;2.73;;;;;;;8.19;75.55;101947.63;5983704;28;20043;-68
2022/05/08 02:54:33;;;;;;;12.73;2.77;;;;;;;8.01;75.65;101946.19;5982362;28;20105;-65
2022/05/08 03:00:43;;;;;;;8.10;2.25;;;;;;;7.98;76.42;101945.53;5978845;28;20475;-66
2022/05/08 03:03:38;;;;;;;9.68;1.92;;;;;;;8.17;75.63;101948.66;5992828;28;20031;-68
2022/05/08 03:06:33;;;;;;;10.37;2.17;;;;;;;8.24;74.76;101945.50;5988558;28;20054;-67
2022/05/08 03:09:29;;;;;;;10.20;2.27;;;;;;;8.08;74.63;101951.91;5982297;28;20039;-67
2022/05/08 03:12:24;;;;;;;14.90;2.20;;;;;;;8.14;75.33;101949.72;5983306;28;20046;-67
2022/05/08 03:15:20;;;;;;;7.37;2.10;;;;;;;7.92;75.19;101944.13;5981133;28;20037;-67
2022/05/08 03:18:15;;;;;;;13.93;2.60;;;;;;;7.92;75.10;101951.19;5989834;28;20034;-67
2022/05/08 03:21:12;;;;;;;10.97;2.20;;;;;;;8.06;75.53;101952.00;5981035;28;20114;-66
2022/05/08 03:24:08;;;;;;;7.40;2.38;;;;;;;8.14;75.27;101959.44;5989442;28;20640;-66
2022/05/08 03:27:03;;;;;;;11.95;2.55;;;;;;;8.04;75.37;101964.47;5981661;28;20027;-68
2022/05/08 03:29:58;;;;;;;12.85;2.33;;;;;;;7.85;75.88;101958.69;5991225;28;20042;-66
2022/05/08 03:32:55;;;;;;;10.47;2.30;;;;;;;7.57;76.78;101970.13;5993580;28;20039;-66
2022/05/08 03:35:51;;;;;;;9.95;2.30;;;;;;;7.50;76.27;101962.69;5987250;28;20086;-68
2022/05/08 03:38:47;;;;;;;5.85;2.03;;;;;;;7.25;77.42;101973.91;5984621;28;20027;-66
2022/05/08 03:41:42;;;;;;;9.75;3.22;;;;;;;7.15;77.78;101973.59;5992771;28;20035;-67
2022/05/08 03:44:39;;;;;;;10.40;2.47;;;;;;;7.23;77.35;101975.78;5982040;28;20042;-67
2022/05/08 03:47:34;;;;;;;12.90;2.88;;;;;;;7.08;77.88;101972.28;5982310;28;20050;-66
2022/05/08 03:50:30;;;;;;;13.67;2.17;;;;;;;6.95;78.65;101979.25;5980926;28;20040;-67
2022/05/08 03:53:25;;;;;;;7.93;1.80;;;;;;;6.73;78.84;101970.91;5981269;28;20050;-66
2022/05/08 03:56:21;;;;;;;11.10;2.50;;;;;;;6.86;79.57;101977.16;5981740;28;20039;-66
2022/05/08 03:59:16;;;;;;;9.83;2.20;;;;;;;6.79;79.03;101975.84;5983105;28;20409;-65
2022/05/08 04:02:11;;;;;;;13.00;2.67;;;;;;;6.77;79.63;101987.38;5984491;28;20038;-66
2022/05/08 04:05:07;;;;;;;13.87;2.73;;;;;;;6.62;79.34;101983.03;5986006;28;20039;-66
2022/05/08 04:08:03;;;;;;;9.23;1.90;;;;;;;6.48;80.65;101981.19;5981852;28;20035;-66
2022/05/08 04:10:58;;;;;;;13.80;2.47;;;;;;;7.01;80.84;101981.50;5981239;28;20438;-66
2022/05/08 04:13:53;;;;;;;9.70;1.90;;;;;;;7.37;79.38;101975.78;5980982;28;20506;-67
2022/05/08 04:16:49;;;;;;;9.20;2.00;;;;;;;7.42;78.85;101980.78;5981249;28;20290;-67
2022/05/08 04:19:46;;;;;;;12.52;2.00;;;;;;;7.64;77.71;101971.44;5979911;28;20376;-67
2022/05/08 04:25:56;;;;;;;10.52;2.13;;;;;;;8.94;74.33;101988.44;5980367;28;20031;-66
2022/05/08 04:28:51;;;;;;;13.45;2.05;;;;;;;9.03;73.62;101992.22;5992804;28;20034;-67
2022/05/08 04:31:46;;;;;;;8.60;1.80;;;;;;;8.70;73.36;101995.34;5979658;28;20037;-66
2022/05/08 04:34:42;;;;;;;10.83;1.90;;;;;;;8.62;75.33;101995.03;5993559;28;20046;-65
2022/05/08 04:37:37;;;;;;;7.23;2.30;;;;;;;8.67;74.50;101996.41;5982401;28;20407;-67
2022/05/08 04:40:32;;;;;;;9.50;1.93;;;;;;;8.65;73.67;101997.47;5978848;28;20067;-66
2022/05/08 04:43:28;;;;;;;11.67;2.73;;;;;;;8.35;74.65;102005.63;5981001;28;20027;-66
2022/05/08 04:46:23;;;;;;;13.47;2.27;;;;;;;8.35;75.10;102009.13;5980766;28;20042;-66
2022/05/08 04:49:18;;;;;;;15.53;2.43;;;;;;;8.76;73.35;102010.81;5979925;28;20383;-67
2022/05/08 04:52:13;;;;;;;6.17;1.73;;;;;;;9.32;71.45;102007.81;5979127;28;20094;-66
2022/05/08 04:55:09;;;;;;;7.30;1.80;;;;;;;8.83;72.43;102006.84;5979482;28;20094;-66
2022/05/08 04:58:04;;;;;;;10.50;2.03;;;;;;;8.99;71.65;102003.03;5979811;28;20058;-68
2022/05/08 05:01:00;;;;;;;12.50;2.60;;;;;;;9.40;70.77;102013.41;5978893;28;20035;-67
2022/05/08 05:03:55;;;;;;;5.70;1.83;;;;;;;9.55;70.64;102011.50;5979253;28;20051;-66
2022/05/08 05:06:50;;;;;;;5.90;1.67;;;;;;;9.30;70.35;102017.66;5980542;28;20035;-68
2022/05/08 05:09:46;;;;;;;9.13;2.00;;;;;;;10.02;68.34;102018.75;5978897;28;20031;-67
2022/05/08 05:12:41;;;;;;;12.30;2.67;;;;;;;9.29;70.29;102021.28;5978921;28;20035;-68
2022/05/08 05:15:36;;;;;;;9.23;2.13;;;;;;;9.36;70.71;102032.28;5980373;28;20050;-67
2022/05/08 05:18:32;;;;;;;11.20;2.27;;;;;;;9.67;69.73;102031.00;5979249;28;20090;-67
2022/05/08 05:21:27;;;;;;;13.60;2.45;;;;;;;9.65;69.73;102048.81;5981241;28;20028;-67
2022/05/08 05:24:22;;;;;;;8.37;2.87;;;;;;;9.57;70.48;102042.22;5992396;28;20506;-67
2022/05/08 05:27:17;;;;;;;7.60;1.90;;;;;;;9.51;69.81;102053.25;5979637;28;20653;-66
2022/05/08 05:30:15;;;;;;;8.07;3.00;;;;;;;9.35;70.71;102047.31;5985160;28;20043;-67
2022/05/08 05:33:15;;;;;;;9.43;2.67;;;;;;;9.14;71.15;102054.06;5982757;28;20038;-66
2022/05/08 05:36:10;;;;;;;9.25;2.40;;;;;;;9.36;70.97;102054.31;5979231;28;20058;-67
2022/05/08 05:39:06;;;;;;;7.60;1.90;;;;;;;9.57;70.83;102063.41;5984709;28;20035;-67
2022/05/08 05:42:01;;;;;;;9.37;1.60;;;;;;;10.41;67.55;102055.63;5978481;28;20033;-66
2022/05/08 05:44:56;;;;;;;10.50;1.60;;;;;;;10.69;65.22;102055.31;5982979;28;20039;-68
2022/05/08 05:47:53;;;;;;;9.82;2.30;;;;;;;10.01;66.88;102065.59;5978740;28;20023;-66
2022/05/08 05:50:48;;;;;;;10.73;1.63;;;;;;;9.91;66.70;102075.16;5979157;28;20036;-66
2022/05/08 05:53:43;;;;;;;8.73;1.90;;;;;;;10.46;66.13;102073.88;5984377;28;20035;-67
2022/05/08 05:56:39;;;;;;;3.43;1.10;;;;;;;10.18;65.17;102079.47;5984241;28;20089;-66
2022/05/08 05:59:34;;;;;;;12.40;1.77;;;;;;;10.67;63.92;102069.66;5984226;28;20098;-68
2022/05/08 06:02:29;;;;;;;12.10;1.77;;;;;;;11.03;62.37;102064.25;5993130;28;20763;-67
2022/05/08 06:05:26;;;;;;;9.50;1.57;;;;;;;10.99;62.09;102069.91;5986086;28;20031;-67
2022/05/08 06:08:21;;;;;;;10.65;1.98;;;;;;;11.10;61.87;102070.78;5993655;28;20297;-67
2022/05/08 06:11:16;;;;;;;8.20;1.47;;;;;;;11.24;60.23;102077.69;5982752;28;20027;-65
2022/05/08 06:14:11;;;;;;;11.60;2.07;;;;;;;11.59;60.37;102072.31;5994040;28;20034;-66
2022/05/08 06:17:07;;;;;;;10.93;1.90;;;;;;;10.87;61.95;102069.00;5992145;28;20081;-66
2022/05/08 06:20:02;;;;;;;9.90;1.50;;;;;;;10.63;63.29;102071.66;5982041;28;20035;-67
2022/05/08 06:22:58;;;;;;;11.23;2.03;;;;;;;11.58;60.34;102082.09;5983808;28;20461;-66
2022/05/08 06:25:53;;;;;;;7.60;1.60;;;;;;;11.04;61.86;102075.69;5983133;28;20031;-67
2022/05/08 06:28:48;;;;;;;9.23;1.53;;;;;;;11.92;59.61;102073.25;5982579;28;20298;-66
2022/05/08 06:31:46;;;;;;;5.82;1.50;;;;;;;11.42;60.85;102065.66;5983400;28;20031;-66
2022/05/08 06:34:42;;;;;;;7.25;1.80;;;;;;;11.47;60.88;102075.94;5993865;28;20050;-66
2022/05/08 06:37:37;;;;;;;8.70;1.70;;;;;;;11.78;59.97;102073.47;5983807;28;20027;-67
2022/05/08 06:40:32;;;;;;;7.93;1.83;;;;;;;11.39;59.77;102084.47;5982261;28;20045;-67
2022/05/08 06:43:28;;;;;;;4.53;1.50;;;;;;;11.51;60.48;102082.72;5983460;28;20039;-67
2022/05/08 06:46:23;;;;;;;9.83;1.77;;;;;;;12.18;57.98;102064.97;5982629;28;20039;-66
2022/05/08 06:49:18;;;;;;;8.90;1.97;;;;;;;12.31;57.68;102076.34;5983297;28;20278;-67
2022/05/08 06:52:14;;;;;;;8.10;1.43;;;;;;;11.76;57.35;102071.91;5986268;28;20409;-67
2022/05/08 06:55:09;;;;;;;11.63;1.77;;;;;;;12.02;57.39;102081.31;5990417;28;20035;-67
2022/05/08 06:58:04;;;;;;;8.33;1.63;;;;;;;11.67;58.59;102073.44;5991257;28;20038;-67
2022/05/08 07:04:14;;;;;;;6.07;1.50;;;;;;;11.79;58.08;102072.53;5969550;28;20471;-66
2022/05/08 07:07:09;;;;;;;4.50;1.48;;;;;;;12.79;55.81;102075.00;5992497;28;20038;-66
2022/05/08 07:10:05;;;;;;;9.10;1.63;;;;;;;12.70;55.69;102080.22;5985722;28;20041;-66
2022/05/08 07:13:00;;;;;;;5.77;1.60;;;;;;;12.18;56.65;102080.94;5990454;28;20047;-66
2022/05/08 07:15:55;;;;;;;6.07;1.70;;;;;;;12.18;57.16;102076.47;5984149;28;20033;-66
2022/05/08 07:18:50;;;;;;;7.53;2.30;;;;;;;12.25;56.76;102082.16;5969918;29;20475;-65
2022/05/08 07:21:46;;;;;;;7.27;1.60;;;;;;;12.47;57.29;102076.78;5982290;28;20035;-66
2022/05/08 07:24:41;;;;;;;8.23;1.60;;;;;;;12.37;57.17;102082.00;5987684;28;20291;-67
2022/05/08 07:27:39;;;;;;;6.30;1.33;;;;;;;12.73;54.99;102082.63;5993572;28;20069;-67
2022/05/08 07:30:35;;;;;;;6.30;1.23;;;;;;;13.02;53.97;102079.22;5981147;28;20043;-67
2022/05/08 07:33:34;;;;;;;6.53;1.92;;;;;;;12.44;53.99;102082.34;6000482;28;20092;-67
2022/05/08 07:36:29;;;;;;;12.10;1.67;;;;;;;12.42;55.67;102086.94;5987877;28;20034;-68
2022/05/08 07:39:25;;;;;;;8.97;2.13;;;;;;;12.83;54.54;102083.56;5988111;28;20088;-66
2022/05/08 07:42:20;;;;;;;6.57;1.43;;;;;;;12.69;53.02;102083.88;5991305;28;20351;-67
2022/05/08 07:45:15;;;;;;;7.67;1.43;;;;;;;13.09;52.21;102085.78;5981199;28;20023;-67
2022/05/08 07:48:11;;;;;;;8.87;1.90;;;;;;;13.24;51.82;102077.47;5987162;28;20467;-67
2022/05/08 07:51:06;;;;;;;7.60;1.57;;;;;;;13.31;52.30;102079.50;5982167;28;20037;-66
2022/05/08 07:54:01;;;;;;;10.57;1.77;;;;;;;13.19;53.11;102074.34;5980420;28;20310;-66
2022/05/08 07:56:56;;;;;;;7.20;1.60;;;;;;;13.24;52.11;102077.47;5989579;28;20043;-66
2022/05/08 07:59:52;;;;;;;5.70;1.43;;;;;;;13.16;52.57;102075.44;5980195;28;20034;-66
2022/05/08 08:02:48;;;;;;;5.50;1.50;;;;;;;13.28;50.58;102082.41;5980206;28;20402;-67
2022/05/08 08:05:43;;;;;;;8.25;1.90;;;;;;;13.48;51.28;102075.41;5980714;28;20023;-67
2022/05/08 08:08:39;;;;;;;5.37;1.67;;;;;;;13.74;49.71;102076.66;5980604;28;20501;-67
2022/05/08 08:11:35;;;;;;;8.73;1.58;;;;;;;13.69;51.24;102078.88;5980733;28;20138;-67
2022/05/08 08:14:30;;;;;;;8.15;1.95;;;;;;;13.62;52.52;102080.38;5979092;28;20031;-67
2022/05/08 08:17:27;;;;;;;10.50;2.00;;;;;;;13.25;52.84;102090.66;5984884;28;20039;-66
2022/05/08 08:20:23;;;;;;;7.28;1.65;;;;;;;13.44;51.87;102081.94;5979574;28;20106;-67
2022/05/08 08:23:18;;;;;;;7.47;2.43;;;;;;;13.57;49.80;102090.59;5986177;28;20060;-67
2022/05/08 08:26:14;;;;;;;6.90;1.27;;;;;;;13.52;50.10;102083.00;5979678;28;20121;-68
2022/05/08 08:29:09;;;;;;;8.73;1.48;;;;;;;13.74;50.86;102084.66;5981425;28;20480;-67
2022/05/08 08:32:05;;;;;;;9.73;1.67;;;;;;;13.72;50.73;102094.63;5980065;28;20035;-66
2022/05/08 08:35:00;;;;;;;5.90;1.35;;;;;;;13.97;49.87;102094.16;5980104;28;20063;-67
2022/05/08 08:37:55;;;;;;;11.32;1.80;;;;;;;13.90;50.10;102090.34;5985178;28;20118;-67
2022/05/08 08:40:52;;;;;;;9.17;1.77;;;;;;;14.32;50.00;102098.25;5979565;28;20539;-66
2022/05/08 08:50:17;;;;;;;7.60;1.42;;;;;;;15.02;48.87;102098.91;5978269;29;20039;-67
2022/05/08 08:53:12;;;;;;;5.90;1.40;;;;;;;15.32;46.94;102101.44;5983650;28;20042;-66
2022/05/08 08:56:07;;;;;;;9.87;2.13;;;;;;;15.28;46.42;102102.69;5979813;28;20091;-66
2022/05/08 08:59:03;;;;;;;6.97;1.63;;;;;;;15.21;45.30;102103.41;5979392;28;20399;-68
2022/05/08 09:01:58;;;;;;;9.68;1.45;;;;;;;15.68;45.44;102096.31;5981671;28;20033;-67
2022/05/08 09:04:54;;;;;;;6.00;1.57;;;;;;;15.54;45.91;102100.31;5979511;28;20039;-67
2022/05/08 09:07:52;;;;;;;5.20;1.30;;;;;;;15.35;45.48;102101.16;5979819;28;20035;-67
2022/05/08 09:10:48;;;;;;;6.00;1.67;;;;;;;15.23;45.41;102109.44;5978961;28;20098;-67
2022/05/08 09:13:50;;;;;;;5.80;1.40;;;;;;;15.19;45.67;102105.38;5979438;28;20470;-66
2022/05/08 09:16:52;;;;;;;9.35;1.65;;;;;;;15.31;46.95;102110.41;5978654;28;20031;-67
2022/05/08 09:19:47;;;;;;;10.40;1.55;;;;;;;14.99;46.41;102103.69;5983895;28;20035;-66
2022/05/08 09:22:58;;;;;;;6.80;2.30;;;;;;;15.53;45.97;102100.44;5979011;28;20097;-67
2022/05/08 09:25:54;;;;;;;5.40;1.40;;;;;;;15.65;44.05;102104.63;5979173;28;20354;-67
2022/05/08 09:28:49;;;;;;;10.52;1.67;;;;;;;15.53;45.03;102100.44;5979635;28;20043;-67
2022/05/08 09:31:45;;;;;;;11.07;1.60;;;;;;;15.62;44.14;102100.41;5979257;28;20039;-66
2022/05/08 09:34:59;;;;;;;9.37;1.63;;;;;;;15.92;43.73;102096.66;5972070;28;20059;-68
2022/05/08 09:37:54;;;;;;;7.30;1.60;;;;;;;16.43;44.88;102098.81;5977022;29;20042;-67
2022/05/08 09:41:04;;;;;;;8.00;2.43;;;;;;;16.48;43.55;102094.69;5978758;28;20074;-67
2022/05/08 09:44:13;;;;;;;8.18;1.88;;;;;;;16.52;44.91;102093.38;5980535;28;20039;-68
2022/05/08 09:47:08;;;;;;;13.23;2.25;;;;;;;16.46;44.52;102093.16;5974584;28;20094;-68
2022/05/08 09:50:04;;;;;;;9.20;1.80;;;;;;;16.63;43.33;102098.56;5969876;28;20043;-67
2022/05/08 09:52:59;;;;;;;4.40;1.10;;;;;;;16.63;44.52;102084.34;6001760;28;20270;-67
2022/05/08 09:55:56;;;;;;;6.53;1.50;;;;;;;16.21;44.32;102094.69;5980678;28;20039;-66
2022/05/08 09:58:51;;;;;;;7.45;1.60;;;;;;;16.51;44.10;102094.38;5983435;28;20034;-68
2022/05/08 10:01:47;;;;;;;6.50;1.63;;;;;;;16.71;43.53;102088.94;5976020;28;20034;-67
2022/05/08 10:04:43;;;;;;;6.30;1.73;;;;;;;16.89;44.34;102076.38;5987596;28;20027;-67
2022/05/08 10:07:39;;;;;;;8.07;1.42;;;;;;;16.83;44.30;102087.69;6002457;28;20546;-67
2022/05/08 10:13:53;;;;;;;9.98;1.70;;;;;;;16.65;43.38;102088.53;5976647;28;20031;-67
2022/05/08 10:16:52;;;;;;;5.10;1.30;;;;;;;16.77;42.70;102085.66;5978181;28;20193;-66
2022/05/08 10:19:48;;;;;;;9.23;1.80;;;;;;;16.67;42.94;102083.88;5971903;28;20031;-66
2022/05/08 10:22:48;;;;;;;8.95;1.70;;;;;;;16.77;44.43;102080.28;5975396;28;20390;-68
2022/05/08 10:26:12;;;;;;;8.05;1.80;;;;;;;16.48;43.10;102092.00;5996852;28;20052;-68
2022/05/08 10:29:29;;;;;;;6.43;1.90;;;;;;;16.68;42.52;102087.41;5980362;28;20515;-66
2022/05/08 10:32:28;;;;;;;4.43;1.60;;;;;;;17.23;42.41;102077.31;5974237;28;20043;-67
2022/05/08 10:35:25;;;;;;;5.90;1.70;;;;;;;17.07;41.60;102082.56;5987357;28;20553;-67
2022/05/08 10:38:21;;;;;;;6.72;1.42;;;;;;;17.10;41.76;102080.41;5979532;28;20053;-68
2022/05/08 10:41:44;;;;;;;8.35;1.70;;;;;;;17.48;40.67;102076.50;5984512;28;20111;-68
2022/05/08 10:44:42;;;;;;;7.13;1.45;;;;;;;17.40;39.35;102067.56;5985399;28;20031;-66
2022/05/08 10:47:40;;;;;;;7.80;1.75;;;;;;;17.36;41.63;102071.56;5982652;28;20085;-67
2022/05/08 10:50:36;;;;;;;7.45;2.15;;;;;;;17.31;41.50;102074.72;5990675;28;20479;-67
2022/05/08 10:53:33;;;;;;;10.45;1.60;;;;;;;17.32;41.38;102071.03;5984417;28;20038;-68
2022/05/08 10:56:45;;;;;;;10.45;1.77;;;;;;;17.84;40.45;102072.75;5980077;28;20233;-67
2022/05/08 10:59:44;;;;;;;5.72;1.98;;;;;;;17.76;40.13;102074.53;5992443;28;20035;-68
2022/05/08 11:02:43;;;;;;;6.15;1.38;;;;;;;17.51;38.85;102065.47;5978843;28;20055;-66
2022/05/08 11:05:38;;;;;;;6.32;1.40;;;;;;;17.68;37.94;102078.03;5994221;28;20518;-66
2022/05/08 11:08:35;;;;;;;6.73;1.40;;;;;;;18.18;38.34;102069.22;5980898;28;20035;-66
2022/05/08 11:11:31;;;;;;;4.15;1.45;;;;;;;18.77;36.06;102061.00;5981955;28;20450;-67
2022/05/08 11:14:28;;;;;;;4.67;1.30;;;;;;;18.43;37.24;102079.00;5983057;28;20068;-67
2022/05/08 11:17:23;;;;;;;5.70;1.45;;;;;;;19.08;37.10;102068.41;5985045;28;20071;-68
2022/05/08 11:20:19;;;;;;;9.10;2.00;;;;;;;18.54;35.51;102070.69;5991785;28;20690;-67
2022/05/08 11:23:16;;;;;;;7.07;1.77;;;;;;;18.88;36.22;102074.13;5991764;28;20038;-67
2022/05/08 11:26:12;;;;;;;5.65;1.85;;;;;;;19.22;35.81;102065.88;5986335;28;20051;-67
2022/05/08 11:29:15;;;;;;;7.90;1.60;;;;;;;18.68;34.72;102067.34;5991499;28;20052;-68
2022/05/08 11:38:48;;;;;;;5.22;1.75;;;;;;;18.59;35.74;102054.91;5987481;28;20027;-68
2022/05/08 11:41:46;;;;;;;5.55;1.42;;;;;;;18.49;35.32;102056.06;5977311;28;20034;-66
2022/05/08 11:44:41;;;;;;;7.40;1.73;;;;;;;18.59;35.50;102057.59;5983889;28;20039;-67
2022/05/08 11:47:36;;;;;;;5.27;1.40;;;;;;;18.71;34.37;102053.59;5982990;28;20470;-67
2022/05/08 11:50:32;;;;;;;5.73;1.30;;;;;;;18.72;34.26;102052.59;5989559;28;20027;-67
2022/05/08 11:53:27;;;;;;;6.93;1.97;;;;;;;18.86;35.01;102059.16;5982711;28;20287;-67
2022/05/08 11:56:30;;;;;;;4.60;1.40;;;;;;;18.47;33.78;102053.50;5980883;28;20043;-66
2022/05/08 11:59:26;;;;;;;5.28;1.67;;;;;;;18.88;36.08;102057.97;5981769;28;20039;-66
2022/05/08 12:02:37;;;;;;;7.50;1.65;;;;;;;19.20;34.90;102046.38;5980892;28;20069;-67
2022/05/08 12:05:34;;;;;;;5.38;1.30;;;;;;;19.30;34.42;102033.56;5988554;28;20110;-67
2022/05/08 12:08:29;;;;;;;4.13;1.85;;;;;;;19.13;32.78;102041.84;5979521;29;20042;-68
2022/05/08 12:11:29;;;;;;;7.97;1.43;;;;;;;18.88;34.67;102041.84;5983308;28;20533;-67
2022/05/08 12:14:31;;;;;;;4.47;1.30;;;;;;;18.91;31.45;102041.53;5993412;28;20428;-67
2022/05/08 12:17:27;;;;;;;5.38;1.33;;;;;;;18.89;31.86;102037.28;5979489;28;20035;-67
2022/05/08 12:20:34;;;;;;;5.45;1.67;;;;;;;19.34;30.50;102026.00;5979080;28;20035;-67
2022/05/08 12:23:30;;;;;;;5.25;1.40;;;;;;;19.02;30.79;102026.91;5972302;28;20491;-66
2022/05/08 12:26:25;;;;;;;3.03;0.90;;;;;;;19.59;30.17;102016.91;5985878;28;20042;-67
2022/05/08 12:29:22;;;;;;;4.53;1.30;;;;;;;19.80;32.30;102024.41;5980766;28;20034;-66
2022/05/08 12:32:20;;;;;;;3.85;1.42;;;;;;;19.95;30.26;102015.41;5971420;28;20036;-68
2022/05/08 12:35:23;;;;;;;4.03;1.30;;;;;;;19.94;30.68;102013.75;5979863;28;20042;-68
2022/05/08 12:38:19;;;;;;;4.93;1.08;;;;;;;20.04;28.18;102008.97;5980489;29;20035;-65
2022/05/08 12:41:15;;;;;;;7.07;1.30;;;;;;;20.08;28.09;102014.84;5979287;28;20039;-67
2022/05/08 12:44:10;;;;;;;3.20;1.27;;;;;;;19.73;28.86;102010.78;5981357;28;20403;-67
2022/05/08 12:47:07;;;;;;;6.18;1.42;;;;;;;19.79;28.31;101999.31;5980125;28;20035;-68
2022/05/08 12:50:07;;;;;;;5.10;1.40;;;;;;;19.93;29.13;101995.91;5979217;28;20035;-68
2022/05/08 12:53:02;;;;;;;2.63;1.25;;;;;;;20.26;28.45;101998.44;5980139;28;20391;-68
2022/05/08 12:55:57;;;;;;;5.13;1.10;;;;;;;20.39;28.45;102001.38;5979581;28;20039;-67
2022/05/08 13:02:08;;;;;;;3.92;1.15;;;;;;;19.86;26.81;101997.63;5978057;28;20036;-68
2022/05/08 13:05:03;;;;;;;4.45;1.23;;;;;;;19.91;27.65;101997.94;5979897;28;20035;-67
2022/05/08 13:07:59;;;;;;;8.02;1.30;;;;;;;20.08;27.48;101990.63;5979714;28;20122;-68
2022/05/08 13:10:54;;;;;;;4.68;1.30;;;;;;;20.44;26.82;101994.44;5978757;28;20038;-67
2022/05/08 13:13:49;;;;;;;2.33;0.93;;;;;;;20.04;25.90;101987.44;5979734;28;20541;-67
2022/05/08 13:16:45;;;;;;;3.87;1.10;;;;;;;20.28;26.08;101986.47;5979431;28;20039;-67
2022/05/08 13:19:40;;;;;;;6.25;1.67;;;;;;;20.66;25.26;101987.38;5980457;28;20208;-68
2022/05/08 13:22:40;;;;;;;3.33;1.17;;;;;;;20.62;24.89;101973.44;5985749;28;20534;-68
2022/05/08 13:25:36;;;;;;;2.72;1.10;;;;;;;21.04;25.25;101970.19;5979322;28;20039;-68
2022/05/08 13:28:33;;;;;;;2.97;1.00;;;;;;;21.33;24.88;101975.63;5978163;28;20066;-67
2022/05/08 13:31:28;;;;;;;5.20;1.42;;;;;;;21.00;25.55;101968.88;5976884;28;20109;-68
2022/05/08 13:34:28;;;;;;;7.03;1.30;;;;;;;21.06;25.55;101964.63;5987680;28;20479;-65
2022/05/08 13:37:24;;;;;;;4.40;1.23;;;;;;;20.97;23.71;101963.00;5988623;28;20043;-67
2022/05/08 13:40:19;;;;;;;4.85;1.05;;;;;;;21.43;24.57;101959.19;5977076;28;20055;-68
2022/05/08 13:43:15;;;;;;;2.80;1.13;;;;;;;21.65;25.31;101960.09;5979954;28;20043;-65
2022/05/08 13:46:11;;;;;;;4.28;1.50;;;;;;;21.06;24.27;101965.44;5978924;28;20037;-65
2022/05/08 13:49:07;;;;;;;4.93;1.30;;;;;;;20.96;24.04;101964.88;5980130;28;20039;-66
2022/05/08 13:52:03;;;;;;;4.30;1.08;;;;;;;20.57;23.90;101969.63;5978531;28;20271;-68
2022/05/08 13:54:58;;;;;;;3.40;1.10;;;;;;;20.76;24.98;101969.13;5978879;28;20502;-68
2022/05/08 13:57:54;;;;;;;4.30;1.00;;;;;;;21.02;24.21;101961.44;5971416;28;20039;-66
2022/05/08 14:00:50;;;;;;;2.92;1.23;;;;;;;21.27;23.91;101959.38;5978235;28;20569;-65
2022/05/08 14:03:45;;;;;;;3.33;1.17;;;;;;;21.55;23.15;101946.88;5976130;28;20237;-66
2022/05/08 14:06:40;;;;;;;2.70;1.20;;;;;;;21.33;23.00;101954.03;5985124;28;20035;-65
2022/05/08 14:09:36;;;;;;;7.40;1.53;;;;;;;21.96;23.86;101955.31;5978855;28;20039;-65